Time;durP1;ratioP1;P1;durP2;ratioP2;P2;SDS_P1;SDS_P2;PMS_P1;PMS_P2;Temp;Humidity;BMP_temperature;BMP_pressure;BME280_temperature;BME280_humidity;BME280_pressure;Samples;Min_cycle;Max_cycle;Signal;HPM_P1;HPM_P2
2020/12/09 00:00:42;;;;;;;38.53;17.53;;;0.40;99.90;;;;;;4238348;27;20267;-44
2020/12/09 00:02:44;;;;;;;44.17;17.43;;;0.40;99.90;;;;;;4239034;27;20260;-48
2020/12/09 00:04:45;;;;;;;38.77;17.10;;;0.40;99.90;;;;;;4238166;27;20272;-47
2020/12/09 00:06:48;;;;;;;40.40;16.87;;;0.30;99.90;;;;;;4239833;27;20641;-47
2020/12/09 00:08:49;;;;;;;40.90;17.40;;;0.30;99.90;;;;;;4239799;27;20731;-46
2020/12/09 00:10:50;;;;;;;38.50;17.30;;;0.40;99.90;;;;;;4238714;27;20291;-44
2020/12/09 00:12:52;;;;;;;37.10;16.57;;;0.40;99.90;;;;;;4240145;27;20263;-48
2020/12/09 00:14:53;;;;;;;41.03;17.30;;;0.40;99.90;;;;;;4238371;27;20355;-47
2020/12/09 00:16:54;;;;;;;36.87;15.40;;;0.40;99.90;;;;;;4239017;27;20328;-43
2020/12/09 00:18:56;;;;;;;36.50;16.60;;;0.40;99.90;;;;;;4238216;27;20332;-42
2020/12/09 00:20:57;;;;;;;36.43;15.83;;;0.30;99.90;;;;;;4239723;27;20644;-50
2020/12/09 00:22:58;;;;;;;42.47;18.13;;;0.30;99.90;;;;;;4238773;27;20397;-44
2020/12/09 00:24:59;;;;;;;42.40;17.07;;;0.30;99.90;;;;;;4238466;27;20829;-49
2020/12/09 00:27:00;;;;;;;36.20;15.37;;;0.30;99.90;;;;;;4237890;27;20332;-44
2020/12/09 00:29:04;;;;;;;35.67;16.23;;;0.30;99.90;;;;;;4238552;27;20332;-43
2020/12/09 00:31:05;;;;;;;32.63;15.00;;;0.30;99.90;;;;;;4239219;27;20283;-43
2020/12/09 00:33:06;;;;;;;38.17;15.40;;;0.20;99.90;;;;;;4239339;27;20320;-46
2020/12/09 00:35:08;;;;;;;33.17;14.30;;;0.20;99.90;;;;;;4238774;27;20751;-44
2020/12/09 00:37:09;;;;;;;30.90;15.83;;;0.20;99.90;;;;;;4238655;27;20275;-46
2020/12/09 00:39:10;;;;;;;29.00;14.00;;;0.20;99.90;;;;;;4239393;27;20348;-46
2020/12/09 00:41:16;;;;;;;37.57;16.90;;;0.20;99.90;;;;;;4238856;27;20264;-42
2020/12/09 00:43:17;;;;;;;34.50;14.23;;;0.30;99.90;;;;;;4238171;27;20268;-47
2020/12/09 00:45:18;;;;;;;31.70;14.63;;;0.30;99.90;;;;;;4238383;27;20731;-45
2020/12/09 00:47:19;;;;;;;35.50;14.50;;;0.30;99.90;;;;;;4238015;28;21047;-48
2020/12/09 00:49:20;;;;;;;31.60;15.33;;;0.20;99.90;;;;;;4239538;28;20304;-43
2020/12/09 00:51:24;;;;;;;27.47;13.30;;;0.20;99.90;;;;;;4238148;28;20284;-44
2020/12/09 00:53:26;;;;;;;30.40;14.47;;;0.20;99.90;;;;;;4238952;28;20264;-43
2020/12/09 00:55:27;;;;;;;31.57;14.63;;;0.20;99.90;;;;;;4239230;28;20735;-42
2020/12/09 00:57:28;;;;;;;30.80;14.17;;;0.10;99.90;;;;;;4237892;28;20275;-49
2020/12/09 00:59:29;;;;;;;32.87;15.17;;;0.10;99.90;;;;;;4238207;28;20364;-45
2020/12/09 01:01:30;;;;;;;31.20;14.30;;;0.10;99.90;;;;;;4238970;28;20321;-41
2020/12/09 01:03:32;;;;;;;34.17;13.97;;;0.10;99.90;;;;;;4237794;28;20343;-41
2020/12/09 01:05:33;;;;;;;25.77;13.30;;;0.20;99.90;;;;;;4237474;28;20325;-45
2020/12/09 01:07:35;;;;;;;29.87;13.33;;;0.20;99.90;;;;;;4239330;28;20275;-43
2020/12/09 01:09:36;;;;;;;28.03;13.90;;;0.20;99.90;;;;;;4237869;28;20271;-41
2020/12/09 01:11:37;;;;;;;30.47;14.20;;;0.20;99.90;;;;;;4238189;28;20287;-48
2020/12/09 01:13:43;;;;;;;30.90;14.17;;;0.20;99.90;;;;;;4238795;28;20287;-42
2020/12/09 01:15:45;;;;;;;28.00;13.50;;;0.20;99.90;;;;;;4238656;28;20276;-43
2020/12/09 01:17:46;;;;;;;28.27;13.03;;;0.20;99.90;;;;;;4238909;28;20275;-42
2020/12/09 01:19:47;;;;;;;27.93;12.73;;;0.20;99.90;;;;;;4238655;28;20279;-40
2020/12/09 01:21:48;;;;;;;27.90;13.73;;;0.30;99.90;;;;;;4238472;28;20942;-43
2020/12/09 01:23:49;;;;;;;30.30;13.50;;;0.30;99.90;;;;;;4237708;28;20275;-42
2020/12/09 01:25:50;;;;;;;26.10;12.77;;;0.30;99.90;;;;;;4239147;27;20275;-39
2020/12/09 01:27:53;;;;;;;27.90;12.30;;;0.30;99.90;;;;;;4240846;27;20267;-41
2020/12/09 01:29:54;;;;;;;25.47;12.13;;;0.30;99.90;;;;;;4241643;27;20332;-42
2020/12/09 01:31:57;;;;;;;25.97;12.37;;;0.30;99.90;;;;;;4240891;27;20348;-43
2020/12/09 01:33:58;;;;;;;26.50;13.07;;;0.30;99.90;;;;;;4242430;27;20761;-42
2020/12/09 01:35:59;;;;;;;22.60;11.50;;;0.30;99.90;;;;;;4241294;27;20677;-43
2020/12/09 01:38:00;;;;;;;22.27;11.47;;;0.30;99.90;;;;;;4242257;27;20328;-42
2020/12/09 01:40:02;;;;;;;25.67;12.20;;;0.30;99.90;;;;;;4240948;27;20263;-41
2020/12/09 01:42:04;;;;;;;23.90;11.77;;;0.20;99.90;;;;;;4241614;27;20271;-40
2020/12/09 01:44:05;;;;;;;25.00;10.87;;;0.20;99.90;;;;;;4242586;27;20263;-44
2020/12/09 01:46:11;;;;;;;27.27;11.20;;;0.20;99.90;;;;;;4240455;27;20271;-41
2020/12/09 01:48:15;;;;;;;25.20;11.63;;;0.20;99.90;;;;;;4241479;27;20316;-43
2020/12/09 01:50:16;;;;;;;22.60;10.33;;;0.20;99.90;;;;;;4241848;27;21144;-42
2020/12/09 01:52:19;;;;;;;24.30;11.83;;;0.20;99.90;;;;;;4242044;27;20363;-43
2020/12/09 01:54:20;;;;;;;20.53;10.60;;;0.30;99.90;;;;;;4240750;27;20279;-47
2020/12/09 01:56:21;;;;;;;22.57;10.17;;;0.30;99.90;;;;;;4241282;27;20356;-47
2020/12/09 01:58:22;;;;;;;23.43;10.13;;;0.30;99.90;;;;;;4240792;27;20305;-41
2020/12/09 02:00:23;;;;;;;20.57;9.40;;;0.20;99.90;;;;;;4241593;27;20267;-45
2020/12/09 02:02:25;;;;;;;19.13;10.57;;;0.20;99.90;;;;;;4241143;27;20607;-49
2020/12/09 02:04:27;;;;;;;20.77;8.90;;;0.20;99.90;;;;;;4240643;27;20329;-43
2020/12/09 02:06:28;;;;;;;20.13;10.57;;;0.20;99.90;;;;;;4240960;27;20267;-45
2020/12/09 02:08:29;;;;;;;19.50;10.20;;;0.30;99.90;;;;;;4243025;27;20308;-40
2020/12/09 02:10:30;;;;;;;16.23;9.43;;;0.20;99.90;;;;;;4255248;27;20258;-41
2020/12/09 02:12:33;;;;;;;17.67;9.20;;;0.20;99.90;;;;;;4258476;27;20766;-43
2020/12/09 02:14:34;;;;;;;18.53;9.43;;;0.20;99.90;;;;;;4255543;27;20275;-49
2020/12/09 02:16:35;;;;;;;22.40;9.43;;;0.20;99.90;;;;;;4241930;27;21190;-43
2020/12/09 02:18:36;;;;;;;20.53;9.40;;;0.20;99.90;;;;;;4241224;27;20263;-48
2020/12/09 02:20:37;;;;;;;18.03;9.53;;;0.20;99.90;;;;;;4240717;27;20267;-42
2020/12/09 02:22:38;;;;;;;18.17;10.23;;;0.20;99.90;;;;;;4241592;27;20665;-45
2020/12/09 02:24:39;;;;;;;16.87;9.03;;;0.30;99.90;;;;;;4241285;27;20299;-41
2020/12/09 02:26:42;;;;;;;19.53;9.17;;;0.30;99.90;;;;;;4240949;27;20271;-44
2020/12/09 02:28:44;;;;;;;18.47;9.73;;;0.30;99.90;;;;;;4240905;27;20264;-45
2020/12/09 02:30:45;;;;;;;18.57;9.00;;;0.30;99.90;;;;;;4241111;27;20251;-48
2020/12/09 02:32:46;;;;;;;20.07;9.97;;;0.30;99.90;;;;;;4240603;27;20352;-54
2020/12/09 02:34:47;;;;;;;17.40;9.03;;;0.30;99.90;;;;;;4240763;27;20272;-43
2020/12/09 02:36:48;;;;;;;15.37;8.33;;;0.30;99.90;;;;;;4240834;27;20298;-49
2020/12/09 02:38:49;;;;;;;16.87;9.23;;;0.30;99.90;;;;;;4241272;27;20681;-44
2020/12/09 02:40:50;;;;;;;18.97;8.43;;;0.30;99.90;;;;;;4240448;27;20754;-42
2020/12/09 02:42:51;;;;;;;18.87;9.17;;;0.30;99.90;;;;;;4240791;27;20321;-42
2020/12/09 02:44:52;;;;;;;18.20;9.40;;;0.30;99.90;;;;;;4240387;27;20344;-44
2020/12/09 02:46:54;;;;;;;20.40;10.17;;;0.20;99.90;;;;;;4240206;27;20332;-46
2020/12/09 02:48:57;;;;;;;20.63;9.10;;;0.10;99.90;;;;;;4240042;27;20304;-43
2020/12/09 02:50:58;;;;;;;20.33;9.27;;;0.00;99.90;;;;;;4240411;27;20298;-42
2020/12/09 02:52:59;;;;;;;18.23;9.47;;;0.00;99.90;;;;;;4240198;27;20329;-43
2020/12/09 02:55:00;;;;;;;19.03;9.37;;;-0.10;99.90;;;;;;4221377;28;20265;-41
2020/12/09 02:57:01;;;;;;;20.53;10.07;;;-0.10;99.90;;;;;;4240343;27;20754;-42
2020/12/09 02:59:02;;;;;;;20.07;9.93;;;-0.10;99.90;;;;;;4239142;27;20339;-42
2020/12/09 03:01:03;;;;;;;20.17;10.03;;;-0.10;99.90;;;;;;4240560;27;20336;-43
2020/12/09 03:03:04;;;;;;;20.23;10.43;;;-0.10;99.90;;;;;;4240233;27;20316;-43
2020/12/09 03:05:08;;;;;;;21.17;10.07;;;-0.10;99.90;;;;;;4240171;27;20328;-43
2020/12/09 03:07:09;;;;;;;20.63;9.53;;;-0.10;99.90;;;;;;4240451;27;20263;-54
2020/12/09 03:09:10;;;;;;;20.63;10.40;;;-0.10;99.90;;;;;;4239910;27;20271;-44
2020/12/09 03:11:11;;;;;;;17.60;9.43;;;-0.10;99.90;;;;;;4239561;27;21139;-45
2020/12/09 03:13:12;;;;;;;20.20;9.80;;;-0.10;99.90;;;;;;4240519;27;20279;-43
2020/12/09 03:15:13;;;;;;;16.70;9.17;;;-0.10;99.90;;;;;;4239623;27;20336;-42
2020/12/09 03:17:15;;;;;;;19.03;9.03;;;-0.10;99.90;;;;;;4239291;27;20283;-39
2020/12/09 03:19:16;;;;;;;20.57;10.10;;;-0.10;99.90;;;;;;4239501;27;20324;-47
2020/12/09 03:21:17;;;;;;;18.00;8.90;;;-0.10;99.90;;;;;;4239540;27;20263;-43
2020/12/09 03:23:18;;;;;;;15.80;8.93;;;-0.10;99.90;;;;;;4239531;27;20267;-42
2020/12/09 03:25:19;;;;;;;17.17;9.23;;;-0.10;99.90;;;;;;4239851;27;20601;-44
2020/12/09 03:27:20;;;;;;;18.97;10.13;;;-0.10;99.90;;;;;;4239192;27;20264;-43
2020/12/09 03:29:21;;;;;;;31.67;9.77;;;-0.10;99.90;;;;;;4240507;27;20256;-46
2020/12/09 03:31:22;;;;;;;19.53;8.90;;;-0.20;99.90;;;;;;4239683;27;20312;-43
2020/12/09 03:33:23;;;;;;;18.97;8.70;;;-0.20;99.90;;;;;;4239303;27;20665;-45
2020/12/09 03:35:25;;;;;;;22.30;10.80;;;-0.20;99.90;;;;;;4240005;27;20320;-46
2020/12/09 03:37:26;;;;;;;19.10;9.70;;;-0.20;99.90;;;;;;4238896;27;20352;-41
2020/12/09 03:39:27;;;;;;;15.77;8.00;;;-0.20;99.90;;;;;;4240249;27;21054;-44
2020/12/09 03:41:28;;;;;;;20.40;10.03;;;-0.20;99.90;;;;;;4239919;27;20259;-44
2020/12/09 03:43:30;;;;;;;22.20;10.50;;;-0.30;99.90;;;;;;4240471;27;20800;-43
2020/12/09 03:45:31;;;;;;;15.10;8.67;;;-0.30;99.90;;;;;;4239743;27;20359;-53
2020/12/09 03:47:32;;;;;;;15.27;7.70;;;-0.20;99.90;;;;;;4239606;27;20316;-41
2020/12/09 03:49:33;;;;;;;20.60;9.90;;;-0.20;99.90;;;;;;4238751;27;20324;-41
2020/12/09 03:51:34;;;;;;;20.30;9.23;;;-0.30;99.90;;;;;;4239773;27;20795;-40
2020/12/09 03:53:35;;;;;;;20.20;9.13;;;-0.20;99.90;;;;;;4238760;27;20267;-46
2020/12/09 03:55:36;;;;;;;17.27;8.93;;;-0.30;99.90;;;;;;4239243;27;20779;-43
2020/12/09 03:57:37;;;;;;;18.30;8.93;;;-0.30;99.90;;;;;;4238963;27;20332;-39
2020/12/09 03:59:38;;;;;;;15.80;9.40;;;-0.30;99.90;;;;;;4238817;27;20290;-43
2020/12/09 04:01:39;;;;;;;17.93;9.70;;;-0.30;99.90;;;;;;4237504;27;20355;-41
2020/12/09 04:03:40;;;;;;;19.27;8.67;;;-0.30;99.90;;;;;;4239173;27;20279;-43
2020/12/09 04:05:41;;;;;;;18.73;9.57;;;-0.30;99.90;;;;;;4239630;27;20329;-41
2020/12/09 04:07:43;;;;;;;15.70;8.63;;;-0.30;99.90;;;;;;4238458;27;20279;-42
2020/12/09 04:09:44;;;;;;;19.63;9.90;;;-0.30;99.90;;;;;;4239622;27;20279;-45
2020/12/09 04:11:45;;;;;;;18.47;9.50;;;-0.30;99.90;;;;;;4239166;27;20295;-43
2020/12/09 04:13:46;;;;;;;18.47;9.37;;;-0.30;99.90;;;;;;4240063;27;20279;-44
2020/12/09 04:15:47;;;;;;;17.00;9.50;;;-0.30;99.90;;;;;;4239698;27;20259;-45
2020/12/09 04:17:48;;;;;;;14.37;7.73;;;-0.30;99.90;;;;;;4239070;27;20324;-44
2020/12/09 04:19:49;;;;;;;14.73;7.77;;;-0.30;99.90;;;;;;4238909;27;20301;-45
2020/12/09 04:21:50;;;;;;;13.17;7.73;;;-0.30;99.90;;;;;;4238732;27;20332;-43
2020/12/09 04:23:51;;;;;;;16.30;9.43;;;-0.30;99.90;;;;;;4239246;27;20260;-44
2020/12/09 04:25:53;;;;;;;18.17;9.10;;;-0.30;99.90;;;;;;4239367;27;20727;-42
2020/12/09 04:27:54;;;;;;;17.07;8.50;;;-0.30;99.90;;;;;;4238204;27;20280;-44
2020/12/09 04:29:55;;;;;;;18.87;9.20;;;-0.30;99.90;;;;;;4239109;27;20340;-39
2020/12/09 04:31:56;;;;;;;16.30;8.57;;;-0.40;99.90;;;;;;4238154;27;20344;-43
2020/12/09 04:34:00;;;;;;;18.07;8.80;;;-0.40;99.90;;;;;;4239071;27;20272;-41
2020/12/09 04:36:03;;;;;;;16.87;9.03;;;-0.40;99.90;;;;;;4239365;27;20391;-43
2020/12/09 04:38:05;;;;;;;16.73;9.40;;;-0.50;99.90;;;;;;4238068;27;20767;-43
2020/12/09 04:40:06;;;;;;;19.13;8.70;;;-0.40;99.90;;;;;;4239297;27;20312;-42
2020/12/09 04:42:07;;;;;;;17.27;8.60;;;-0.50;99.90;;;;;;4238087;27;20259;-42
2020/12/09 04:44:09;;;;;;;18.13;9.73;;;-0.50;99.90;;;;;;4239127;27;20275;-48
2020/12/09 04:46:10;;;;;;;18.60;8.90;;;-0.40;99.90;;;;;;4238317;27;20339;-49
2020/12/09 04:48:13;;;;;;;16.73;8.80;;;-0.40;99.90;;;;;;4238537;28;20357;-43
2020/12/09 04:50:15;;;;;;;24.17;11.20;;;-0.40;99.90;;;;;;4239014;28;20681;-47
2020/12/09 04:52:46;;;;;;;20.07;10.07;;;-0.50;99.90;;;;;;4239044;28;20340;-44
2020/12/09 04:54:48;;;;;;;17.97;9.33;;;-0.50;99.90;;;;;;4237641;28;20325;-43
2020/12/09 04:56:55;;;;;;;21.70;10.17;;;-0.50;99.90;;;;;;4238952;28;20279;-43
2020/12/09 04:58:58;;;;;;;17.80;9.87;;;-0.50;99.90;;;;;;4237789;28;20410;-46
2020/12/09 05:01:13;;;;;;;17.63;9.60;;;-0.60;99.90;;;;;;4239417;27;20271;-48
2020/12/09 05:03:18;;;;;;;18.30;9.40;;;-0.50;99.90;;;;;;4242624;27;20340;-43
2020/12/09 05:05:21;;;;;;;17.27;9.53;;;-0.60;99.90;;;;;;4242042;27;20263;-46
2020/12/09 05:07:29;;;;;;;17.60;9.67;;;-0.60;99.90;;;;;;4242368;27;20266;-42
2020/12/09 05:09:37;;;;;;;22.37;10.67;;;-0.60;99.90;;;;;;4242227;27;20279;-43
2020/12/09 05:11:38;;;;;;;18.17;9.47;;;-0.60;99.90;;;;;;4241212;27;20331;-41
2020/12/09 05:13:42;;;;;;;19.30;9.43;;;-0.60;99.90;;;;;;4241076;27;20846;-44
2020/12/09 05:15:44;;;;;;;17.80;9.07;;;-0.50;99.90;;;;;;4241721;27;20279;-49
2020/12/09 05:18:02;;;;;;;18.63;9.83;;;-0.50;99.90;;;;;;4242326;27;21137;-44
2020/12/09 05:20:04;;;;;;;18.37;10.00;;;-0.60;99.90;;;;;;4241690;27;21679;-47
2020/12/09 05:22:11;;;;;;;16.50;9.50;;;-0.60;99.90;;;;;;4241649;27;20258;-45
2020/12/09 05:24:13;;;;;;;18.07;9.57;;;-0.50;99.90;;;;;;4256124;27;20274;-40
2020/12/09 05:26:46;;;;;;;16.77;8.67;;;-0.50;99.90;;;;;;4258518;27;20319;-41
2020/12/09 05:28:48;;;;;;;16.73;9.17;;;-0.50;99.90;;;;;;4202096;27;20278;-42
2020/12/09 05:30:53;;;;;;;12.77;7.50;;;-0.50;99.90;;;;;;4241343;27;20279;-44
2020/12/09 05:32:54;;;;;;;16.30;8.40;;;-0.50;99.90;;;;;;4241662;27;21118;-42
2020/12/09 05:34:55;;;;;;;14.73;7.67;;;-0.50;99.90;;;;;;4241166;27;20332;-40
2020/12/09 05:37:05;;;;;;;17.27;8.93;;;-0.50;99.90;;;;;;4241634;27;20312;-45
2020/12/09 05:39:06;;;;;;;14.47;8.33;;;-0.50;99.90;;;;;;4241925;27;20259;-43
2020/12/09 05:41:12;;;;;;;15.43;8.40;;;-0.50;99.90;;;;;;4239718;27;20283;-45
2020/12/09 05:43:15;;;;;;;15.50;8.53;;;-0.50;99.90;;;;;;4240323;27;20339;-44
2020/12/09 05:45:16;;;;;;;17.33;9.23;;;-0.50;99.90;;;;;;4241776;27;21294;-44
2020/12/09 05:47:21;;;;;;;18.60;9.07;;;-0.50;99.90;;;;;;4241459;27;20272;-44
2020/12/09 05:49:24;;;;;;;13.87;8.37;;;-0.50;99.90;;;;;;4241101;27;20348;-44
2020/12/09 05:51:26;;;;;;;15.60;9.10;;;-0.50;99.90;;;;;;4241894;27;20742;-46
2020/12/09 05:53:35;;;;;;;18.33;8.87;;;-0.50;99.90;;;;;;4240594;27;20295;-41
2020/12/09 05:55:36;;;;;;;15.50;8.03;;;-0.50;99.90;;;;;;4240551;27;20671;-40
2020/12/09 05:57:37;;;;;;;13.13;7.87;;;-0.40;99.90;;;;;;4253138;27;20323;-42
2020/12/09 05:59:41;;;;;;;16.13;9.90;;;-0.40;99.90;;;;;;4249313;27;20422;-55
2020/12/09 06:01:42;;;;;;;16.87;9.27;;;-0.40;99.90;;;;;;4240416;27;20320;-46
2020/12/09 06:03:54;;;;;;;20.67;9.40;;;-0.50;99.90;;;;;;4241560;27;20255;-42
2020/12/09 06:06:25;;;;;;;19.77;10.03;;;-0.50;99.90;;;;;;4239374;27;20391;-41
2020/12/09 06:08:38;;;;;;;17.03;9.37;;;-0.40;99.90;;;;;;4222163;27;20816;-47
2020/12/09 06:10:40;;;;;;;15.00;8.40;;;-0.30;99.90;;;;;;4230141;27;20279;-45
2020/12/09 06:12:54;;;;;;;15.77;9.07;;;-0.10;99.90;;;;;;4240153;27;20283;-49
2020/12/09 06:15:15;;;;;;;14.23;7.93;;;0.00;99.90;;;;;;4243352;27;20328;-49
2020/12/09 06:17:16;;;;;;;;;;;0.20;99.90;;;;;;4255012;27;21171;-47
2020/12/09 06:19:17;;;;;;;;;;;0.40;99.90;;;;;;4258904;27;19907;-47
2020/12/09 06:21:18;;;;;;;16.30;8.10;;;0.50;99.90;;;;;;4248225;27;20351;-43
2020/12/09 06:23:19;;;;;;;14.77;7.60;;;0.70;99.90;;;;;;4230811;27;20930;-44
2020/12/09 06:25:21;;;;;;;14.17;7.37;;;0.80;99.90;;;;;;4225036;27;20276;-46
2020/12/09 06:27:29;;;;;;;13.40;7.00;;;1.00;99.90;;;;;;4234971;27;20503;-44
2020/12/09 06:29:30;;;;;;;12.90;7.33;;;1.10;99.90;;;;;;4233296;27;20267;-45
2020/12/09 06:31:31;;;;;;;16.43;8.80;;;1.20;99.90;;;;;;4240807;27;20259;-46
2020/12/09 06:33:35;;;;;;;13.67;8.47;;;1.30;99.90;;;;;;4240129;27;20683;-40
2020/12/09 06:35:36;;;;;;;13.90;7.83;;;1.30;99.90;;;;;;4239808;27;20283;-45
2020/12/09 06:37:38;;;;;;;16.20;7.60;;;1.30;99.90;;;;;;4240221;27;20312;-40
2020/12/09 06:39:39;;;;;;;14.60;8.30;;;1.30;99.90;;;;;;4222665;28;20317;-41
2020/12/09 06:41:46;;;;;;;16.10;8.73;;;1.30;99.90;;;;;;4241058;27;20243;-46
2020/12/09 06:44:08;;;;;;;15.07;9.30;;;1.30;99.90;;;;;;4237730;27;20271;-41
2020/12/09 06:46:09;;;;;;;14.07;8.10;;;1.30;99.90;;;;;;4241120;27;20395;-45
2020/12/09 06:48:14;;;;;;;13.97;8.10;;;1.40;99.90;;;;;;4235165;27;20330;-45
2020/12/09 06:50:31;;;;;;;12.53;7.40;;;1.50;99.90;;;;;;4240598;27;20336;-38
2020/12/09 06:52:34;;;;;;;13.67;7.97;;;1.60;99.90;;;;;;4239969;27;20776;-45
2020/12/09 06:54:38;;;;;;;19.30;8.53;;;1.70;99.90;;;;;;4239834;27;20282;-40
2020/12/09 06:56:40;;;;;;;14.43;7.77;;;1.80;99.90;;;;;;4240841;27;20313;-42
2020/12/09 06:58:41;;;;;;;13.50;8.10;;;1.80;99.90;;;;;;4240257;27;20344;-44
2020/12/09 07:01:05;;;;;;;15.83;8.53;;;1.80;99.90;;;;;;4239162;27;21178;-37
2020/12/09 07:03:28;;;;;;;12.10;7.17;;;1.90;99.90;;;;;;4239677;27;20348;-46
2020/12/09 07:05:30;;;;;;;13.93;7.87;;;1.90;99.90;;;;;;4240689;27;20267;-45
2020/12/09 07:07:45;;;;;;;16.00;8.47;;;2.00;99.90;;;;;;4239788;27;20255;-42
2020/12/09 07:09:46;;;;;;;14.37;8.03;;;2.10;99.90;;;;;;4240537;27;20260;-42
2020/12/09 07:11:54;;;;;;;19.93;8.37;;;2.10;99.90;;;;;;4240501;27;20271;-45
2020/12/09 07:14:05;;;;;;;16.13;9.03;;;2.20;99.90;;;;;;4240153;27;20701;-51
2020/12/09 07:16:07;;;;;;;18.03;8.17;;;2.20;99.90;;;;;;4240752;27;20278;-44
2020/12/09 07:18:08;;;;;;;12.80;7.50;;;2.30;99.90;;;;;;4240391;27;20259;-42
2020/12/09 07:20:10;;;;;;;13.23;7.23;;;2.30;99.90;;;;;;4240548;27;20271;-42
2020/12/09 07:22:11;;;;;;;9.97;6.43;;;2.40;99.90;;;;;;4239773;27;20264;-40
2020/12/09 07:24:12;;;;;;;11.87;7.60;;;2.50;99.90;;;;;;4238160;27;20597;-46
2020/12/09 07:26:13;;;;;;;12.97;7.70;;;2.60;99.90;;;;;;4239768;27;20263;-44
2020/12/09 07:28:14;;;;;;;16.83;7.33;;;2.80;99.90;;;;;;4240110;27;20271;-39
2020/12/09 07:30:18;;;;;;;12.33;6.87;;;2.90;99.90;;;;;;4239249;27;20955;-51
2020/12/09 07:32:21;;;;;;;11.40;6.90;;;2.80;99.90;;;;;;4239534;27;20263;-43
2020/12/09 07:34:22;;;;;;;10.37;6.40;;;2.80;99.90;;;;;;4238677;27;20320;-38
2020/12/09 07:36:23;;;;;;;12.37;7.10;;;2.90;99.90;;;;;;4239714;27;20263;-38
2020/12/09 07:38:24;;;;;;;15.27;6.90;;;3.00;99.90;;;;;;4240286;27;20836;-47
2020/12/09 07:40:28;;;;;;;12.60;7.10;;;2.90;99.90;;;;;;4220742;28;20287;-38
2020/12/09 07:42:29;;;;;;;11.97;6.37;;;2.90;99.90;;;;;;4239447;27;21250;-45
2020/12/09 07:44:30;;;;;;;12.77;7.43;;;2.90;99.90;;;;;;4239240;27;20316;-41
2020/12/09 07:46:32;;;;;;;14.60;7.93;;;3.00;99.90;;;;;;4240035;27;20268;-39
2020/12/09 07:48:33;;;;;;;14.97;7.87;;;3.10;99.90;;;;;;4239064;27;20320;-37
2020/12/09 07:50:35;;;;;;;15.47;7.90;;;3.10;99.90;;;;;;4239841;27;21315;-44
2020/12/09 07:52:41;;;;;;;13.17;7.90;;;3.20;99.90;;;;;;4219852;28;20295;-41
2020/12/09 07:54:43;;;;;;;14.90;7.93;;;3.30;99.90;;;;;;4239433;27;20279;-36
2020/12/09 07:56:44;;;;;;;12.73;6.97;;;3.50;99.90;;;;;;4238215;27;20332;-38
2020/12/09 07:58:45;;;;;;;14.57;7.67;;;3.70;99.90;;;;;;4238646;27;20287;-38
2020/12/09 08:00:49;;;;;;;11.70;6.50;;;3.70;99.90;;;;;;4235168;27;20295;-43
2020/12/09 08:02:51;;;;;;;10.67;6.47;;;3.60;99.90;;;;;;4237482;27;20332;-35
2020/12/09 08:05:11;;;;;;;14.40;7.33;;;3.70;99.90;;;;;;4238534;27;20263;-40
2020/12/09 08:07:19;;;;;;;11.77;7.18;;;3.70;99.90;;;;;;4237366;27;20287;-39
2020/12/09 08:09:20;;;;;;;17.63;8.87;;;3.60;99.90;;;;;;4237888;27;20043;-49
2020/12/09 08:11:22;;;;;;;12.07;6.80;;;3.70;99.90;;;;;;4239044;27;20722;-43
2020/12/09 08:13:25;;;;;;;16.47;8.80;;;3.70;99.90;;;;;;4238494;27;20701;-43
2020/12/09 08:15:26;;;;;;;12.30;6.77;;;3.80;99.90;;;;;;4239277;27;20275;-41
2020/12/09 08:17:29;;;;;;;10.47;5.67;;;3.80;99.90;;;;;;4238669;27;20332;-41
2020/12/09 08:19:30;;;;;;;11.13;7.00;;;3.80;99.90;;;;;;4237692;27;20328;-48
2020/12/09 08:21:31;;;;;;;13.40;7.07;;;3.80;99.90;;;;;;4239443;27;21190;-46
2020/12/09 08:23:49;;;;;;;11.30;6.27;;;3.80;99.90;;;;;;4238101;27;20828;-47
2020/12/09 08:25:52;;;;;;;12.00;6.23;;;3.90;99.90;;;;;;4238731;27;20287;-47
2020/12/09 08:27:53;;;;;;;14.70;7.80;;;3.80;99.90;;;;;;4238175;27;20336;-44
2020/12/09 08:29:54;;;;;;;11.27;6.73;;;3.80;99.90;;;;;;4238909;27;20259;-44
2020/12/09 08:32:02;;;;;;;11.80;6.23;;;3.80;99.90;;;;;;4239541;27;20330;-45
2020/12/09 08:34:13;;;;;;;15.37;7.70;;;3.70;99.90;;;;;;4237757;27;20291;-40
2020/12/09 08:36:15;;;;;;;;;;;3.80;99.90;;;;;;4220347;28;20292;-45
2020/12/09 08:38:25;;;;;;;12.20;6.50;;;3.80;99.90;;;;;;4222647;27;19915;-43
2020/12/09 08:40:26;;;;;;;14.07;6.72;;;3.90;99.90;;;;;;4235132;27;20314;-42
2020/12/09 08:42:27;;;;;;;12.60;7.47;;;3.90;99.90;;;;;;4219178;28;20077;-42
2020/12/09 08:44:28;;;;;;;13.90;8.27;;;3.80;99.90;;;;;;4215903;28;20337;-39
2020/12/09 08:46:30;;;;;;;13.90;8.47;;;3.70;99.90;;;;;;4239034;27;20673;-36
2020/12/09 08:48:34;;;;;;;15.77;7.87;;;3.80;99.90;;;;;;4235940;27;20264;-43
2020/12/09 08:50:35;;;;;;;15.43;8.60;;;3.80;99.90;;;;;;4238026;28;20263;-44
2020/12/09 08:52:37;;;;;;;16.67;8.43;;;3.70;99.90;;;;;;4237794;28;20323;-43
2020/12/09 08:54:38;;;;;;;16.07;8.03;;;3.80;99.90;;;;;;4237750;28;20319;-38
2020/12/09 08:56:39;;;;;;;13.70;7.30;;;3.80;99.90;;;;;;4238382;28;20665;-43
2020/12/09 08:58:40;;;;;;;16.83;8.20;;;3.80;99.90;;;;;;4238793;28;20723;-42
2020/12/09 09:00:41;;;;;;;15.53;8.17;;;3.90;99.90;;;;;;4237989;28;20275;-42
2020/12/09 09:02:43;;;;;;;16.67;7.83;;;4.00;99.90;;;;;;4238329;28;20758;-50
2020/12/09 09:04:44;;;;;;;11.47;6.40;;;4.10;99.90;;;;;;4238969;28;20335;-42
2020/12/09 09:06:46;;;;;;;11.93;7.77;;;4.20;99.90;;;;;;4239128;28;20727;-40
2020/12/09 09:08:47;;;;;;;13.47;7.10;;;4.30;99.90;;;;;;4237889;28;20387;-46
2020/12/09 09:10:49;;;;;;;13.47;6.93;;;4.40;99.90;;;;;;4238457;28;20272;-43
2020/12/09 09:12:50;;;;;;;16.60;7.27;;;4.40;99.90;;;;;;4238539;28;20746;-42
2020/12/09 09:14:51;;;;;;;10.97;6.40;;;4.60;99.90;;;;;;4237570;28;20275;-41
2020/12/09 09:16:53;;;;;;;11.33;7.23;;;4.60;99.90;;;;;;4238538;28;20267;-46
2020/12/09 09:18:54;;;;;;;10.00;6.30;;;4.70;99.90;;;;;;4237647;28;20279;-40
2020/12/09 09:20:55;;;;;;;8.17;5.20;;;5.00;99.90;;;;;;4237882;27;20675;-41
2020/12/09 09:22:56;;;;;;;5.83;3.93;;;5.20;99.90;;;;;;4219322;28;20284;-35
2020/12/09 09:24:57;;;;;;;6.97;4.83;;;5.30;99.90;;;;;;4237464;28;20283;-39
2020/12/09 09:26:59;;;;;;;8.43;4.70;;;5.40;99.90;;;;;;4238360;28;20263;-40
2020/12/09 09:29:00;;;;;;;7.73;5.23;;;5.50;99.90;;;;;;4237354;28;20386;-35
2020/12/09 09:31:01;;;;;;;8.57;3.80;;;5.50;99.90;;;;;;4238087;28;20295;-36
2020/12/09 09:33:04;;;;;;;8.23;6.43;;;5.50;99.90;;;;;;4237496;28;20303;-37
2020/12/09 09:35:05;;;;;;;18.40;10.40;;;5.50;99.90;;;;;;4237882;28;20275;-44
2020/12/09 09:37:08;;;;;;;15.63;10.63;;;5.60;99.90;;;;;;4237597;28;20328;-38
2020/12/09 09:39:09;;;;;;;9.27;5.97;;;5.50;99.90;;;;;;4237714;28;20275;-46
2020/12/09 09:41:10;;;;;;;7.10;4.80;;;5.60;99.90;;;;;;4238497;28;20271;-46
2020/12/09 09:43:11;;;;;;;5.70;4.40;;;5.60;99.90;;;;;;4238572;28;20941;-38
2020/12/09 09:45:12;;;;;;;5.90;4.10;;;5.60;99.90;;;;;;4237414;28;20263;-45
2020/12/09 09:47:13;;;;;;;4.20;3.13;;;5.60;99.90;;;;;;4239875;27;20316;-44
2020/12/09 09:49:15;;;;;;;5.27;3.10;;;5.60;99.90;;;;;;4239958;27;20271;-34
2020/12/09 09:51:16;;;;;;;5.27;3.57;;;5.60;99.90;;;;;;4243106;27;20271;-43
2020/12/09 09:53:17;;;;;;;7.17;3.60;;;5.60;99.90;;;;;;4240115;27;20934;-40
2020/12/09 09:55:18;;;;;;;4.87;3.57;;;5.60;99.90;;;;;;4240934;27;20660;-43
2020/12/09 09:57:19;;;;;;;6.47;3.23;;;5.70;99.90;;;;;;4241122;27;20275;-36
2020/12/09 09:59:20;;;;;;;5.73;3.10;;;5.70;99.90;;;;;;4240694;27;20335;-36
2020/12/09 10:01:21;;;;;;;5.93;3.27;;;5.70;99.90;;;;;;4240782;27;21261;-44
2020/12/09 10:03:22;;;;;;;7.70;3.53;;;5.70;99.90;;;;;;4241415;27;20676;-42
2020/12/09 10:05:27;;;;;;;7.47;3.63;;;5.80;99.90;;;;;;4224985;27;20753;-43
2020/12/09 10:07:28;;;;;;;5.30;3.43;;;5.80;99.90;;;;;;4231595;27;20264;-40
2020/12/09 10:09:29;;;;;;;6.53;3.23;;;5.70;99.90;;;;;;4239784;27;20669;-50
2020/12/09 10:11:30;;;;;;;9.70;4.27;;;5.70;99.90;;;;;;4240555;27;20279;-42
2020/12/09 10:13:32;;;;;;;7.40;4.30;;;5.70;99.90;;;;;;4239512;27;20847;-41
2020/12/09 10:15:33;;;;;;;6.23;3.63;;;5.70;99.90;;;;;;4240669;27;20339;-41
2020/12/09 10:17:34;;;;;;;10.87;3.97;;;5.70;99.90;;;;;;4240636;27;20344;-42
2020/12/09 10:19:35;;;;;;;6.97;4.00;;;5.80;99.90;;;;;;4240266;27;20271;-42
2020/12/09 10:21:36;;;;;;;5.67;4.00;;;5.80;99.90;;;;;;4240929;27;20324;-39
2020/12/09 10:23:37;;;;;;;5.60;3.67;;;5.80;99.90;;;;;;4239945;27;20295;-44
2020/12/09 10:25:38;;;;;;;5.07;3.20;;;5.70;99.90;;;;;;4239621;27;20321;-46
2020/12/09 10:27:40;;;;;;;5.53;3.50;;;5.80;99.90;;;;;;4240324;27;20276;-45
2020/12/09 10:29:42;;;;;;;5.17;3.47;;;5.70;99.90;;;;;;4240240;27;20955;-44
2020/12/09 10:31:45;;;;;;;5.07;4.27;;;5.80;99.90;;;;;;4231358;27;20336;-43
2020/12/09 10:33:50;;;;;;;5.33;3.70;;;5.70;99.90;;;;;;4223769;28;20807;-38
2020/12/09 10:35:51;;;;;;;6.97;4.10;;;5.80;99.90;;;;;;4233614;27;20449;-41